createdAt,value
2022-12-31T00:01:18.328Z,12.22
2022-12-31T00:03:44.582Z,12.21
2022-12-31T00:06:10.829Z,12.21
2022-12-31T00:08:37.085Z,12.21
2022-12-31T00:11:03.349Z,12.12
2022-12-31T00:13:29.623Z,12.11
2022-12-31T00:15:55.892Z,12.13
2022-12-31T00:18:22.133Z,12.20
2022-12-31T00:20:48.402Z,12.19
2022-12-31T00:23:14.659Z,12.15
2022-12-31T00:25:41.009Z,12.04
2022-12-31T00:28:07.270Z,12.03
2022-12-31T00:30:33.551Z,12.15
2022-12-31T00:32:59.852Z,12.16
2022-12-31T00:35:26.108Z,12.09
2022-12-31T00:37:52.469Z,12.03
2022-12-31T00:40:18.716Z,11.99
2022-12-31T00:42:44.968Z,11.97
2022-12-31T00:45:11.233Z,11.91
2022-12-31T00:47:37.478Z,11.98
2022-12-31T00:50:03.742Z,11.99
2022-12-31T00:52:30.006Z,12.11
2022-12-31T00:54:56.267Z,12.09
2022-12-31T00:57:22.512Z,12.02
2022-12-31T00:59:48.763Z,12.04
2022-12-31T01:02:15.134Z,12.08
2022-12-31T01:04:41.556Z,12.01
2022-12-31T01:07:07.806Z,12.04
2022-12-31T01:09:34.072Z,12.04
2022-12-31T01:12:00.339Z,12.07
2022-12-31T01:14:26.592Z,12.14
2022-12-31T01:16:52.870Z,12.13
2022-12-31T01:19:19.126Z,12.21
2022-12-31T01:21:45.396Z,12.18
2022-12-31T01:24:11.676Z,12.20
2022-12-31T01:26:37.918Z,12.27
2022-12-31T01:29:04.196Z,12.06
2022-12-31T01:31:30.533Z,12.12
2022-12-31T01:33:56.822Z,12.07
2022-12-31T01:36:25.924Z,12.05
2022-12-31T01:38:52.790Z,12.01
2022-12-31T01:41:19.049Z,11.99
2022-12-31T01:43:45.309Z,11.95
2022-12-31T01:46:11.624Z,11.99
2022-12-31T01:48:37.902Z,11.88
2022-12-31T01:51:04.143Z,11.94
2022-12-31T01:53:30.404Z,12.01
2022-12-31T01:55:56.669Z,12.04
2022-12-31T01:58:23.003Z,12.10
2022-12-31T02:00:49.247Z,12.11
2022-12-31T02:03:15.509Z,12.11
2022-12-31T02:05:41.837Z,12.16
2022-12-31T02:08:08.109Z,12.18
2022-12-31T02:10:34.359Z,12.12
2022-12-31T02:13:00.618Z,12.17
2022-12-31T02:15:26.862Z,12.20
2022-12-31T02:17:53.148Z,12.16
2022-12-31T02:20:19.423Z,12.15
2022-12-31T02:22:45.678Z,12.10
2022-12-31T02:25:11.998Z,12.16
2022-12-31T02:27:38.251Z,12.19
2022-12-31T02:30:04.518Z,12.17
2022-12-31T02:32:30.773Z,12.18
2022-12-31T02:34:57.051Z,12.17
2022-12-31T02:37:23.289Z,12.13
2022-12-31T02:39:49.559Z,12.21
2022-12-31T02:42:15.943Z,12.24
2022-12-31T02:44:42.214Z,12.22
2022-12-31T02:47:08.539Z,12.18
2022-12-31T02:49:34.826Z,12.16
2022-12-31T02:52:01.063Z,12.17
2022-12-31T02:54:27.294Z,12.16
2022-12-31T02:56:53.543Z,12.21
2022-12-31T02:59:19.822Z,12.23
2022-12-31T03:01:46.107Z,12.18
2022-12-31T03:04:12.410Z,12.18
2022-12-31T03:06:38.641Z,12.19
2022-12-31T03:09:04.881Z,12.22
2022-12-31T03:11:31.139Z,12.18
2022-12-31T03:13:57.403Z,12.29
2022-12-31T03:16:23.714Z,12.21
2022-12-31T03:18:50.054Z,12.09
2022-12-31T03:21:16.303Z,12.13
2022-12-31T03:23:42.541Z,12.13
2022-12-31T03:26:08.792Z,12.13
2022-12-31T03:28:35.060Z,12.15
2022-12-31T03:31:01.389Z,12.16
2022-12-31T03:33:27.733Z,12.28
2022-12-31T03:35:54.001Z,12.18
2022-12-31T03:38:20.275Z,12.21
2022-12-31T03:40:46.521Z,12.13
2022-12-31T03:43:12.777Z,12.21
2022-12-31T03:45:39.093Z,12.24
2022-12-31T03:48:05.445Z,12.27
2022-12-31T03:50:31.713Z,12.31
2022-12-31T03:52:57.949Z,12.31
2022-12-31T03:55:24.217Z,12.25
2022-12-31T03:57:50.466Z,12.39
2022-12-31T04:00:16.744Z,12.33
2022-12-31T04:02:43.072Z,12.40
2022-12-31T04:05:09.418Z,12.33
2022-12-31T04:07:35.692Z,12.28
2022-12-31T04:10:01.953Z,12.30
2022-12-31T04:12:28.232Z,12.40
2022-12-31T04:14:54.506Z,12.40
2022-12-31T04:17:20.754Z,12.44
2022-12-31T04:19:47.010Z,12.43
2022-12-31T04:22:13.277Z,12.46
2022-12-31T04:24:39.542Z,12.45
2022-12-31T04:27:08.069Z,12.42
2022-12-31T04:29:34.518Z,12.49
2022-12-31T04:32:00.834Z,12.49
2022-12-31T04:34:27.116Z,12.44
2022-12-31T04:36:53.350Z,12.52
2022-12-31T04:39:19.623Z,12.51
2022-12-31T04:41:45.911Z,12.46
2022-12-31T04:44:12.171Z,12.51
2022-12-31T04:46:38.426Z,12.55
2022-12-31T04:49:04.700Z,12.54
2022-12-31T04:51:30.975Z,12.51
2022-12-31T04:53:57.239Z,12.52
2022-12-31T04:56:23.499Z,12.54
2022-12-31T04:58:49.760Z,12.50
2022-12-31T05:01:16.127Z,12.66
2022-12-31T05:03:42.444Z,12.58
2022-12-31T05:06:08.716Z,12.44
2022-12-31T05:08:34.954Z,12.47
2022-12-31T05:11:01.213Z,12.42
2022-12-31T05:13:32.950Z,12.38
2022-12-31T05:15:59.700Z,12.44
2022-12-31T05:18:25.964Z,12.38
2022-12-31T05:20:52.254Z,12.34
2022-12-31T05:23:19.586Z,12.15
2022-12-31T05:25:45.834Z,12.23
2022-12-31T05:28:12.100Z,12.09
2022-12-31T05:30:38.399Z,12.14
2022-12-31T05:33:04.687Z,12.11
2022-12-31T05:35:30.984Z,12.13
2022-12-31T05:37:57.263Z,12.03
2022-12-31T05:40:23.523Z,12.19
2022-12-31T05:42:49.786Z,12.28
2022-12-31T05:45:16.086Z,12.29
2022-12-31T05:47:42.357Z,12.19
2022-12-31T05:50:08.726Z,11.97
2022-12-31T05:52:34.969Z,12.17
2022-12-31T05:55:01.237Z,11.98
2022-12-31T05:57:27.579Z,11.79
2022-12-31T05:59:53.853Z,11.80
2022-12-31T06:02:20.134Z,11.91
2022-12-31T06:04:46.400Z,11.85
2022-12-31T06:07:12.664Z,11.84
2022-12-31T06:09:38.929Z,11.77
2022-12-31T06:12:05.186Z,11.74
2022-12-31T06:14:31.443Z,11.64
2022-12-31T06:16:57.716Z,11.66
2022-12-31T06:19:23.985Z,11.66
2022-12-31T06:21:50.228Z,11.79
2022-12-31T06:24:16.521Z,11.88
2022-12-31T06:26:42.769Z,11.96
2022-12-31T06:29:09.032Z,11.84
2022-12-31T06:31:35.308Z,11.75
2022-12-31T06:34:01.656Z,11.73
2022-12-31T06:36:27.908Z,11.76
2022-12-31T06:38:54.167Z,11.67
2022-12-31T06:41:20.406Z,11.72
2022-12-31T06:43:46.675Z,11.60
2022-12-31T06:46:12.988Z,11.55
2022-12-31T06:48:39.318Z,11.52
2022-12-31T06:51:05.593Z,11.52
2022-12-31T06:53:31.835Z,11.41
2022-12-31T06:55:58.093Z,11.33
2022-12-31T06:58:24.339Z,11.32
2022-12-31T07:00:50.580Z,11.28
2022-12-31T07:03:16.905Z,11.29
2022-12-31T07:05:43.243Z,11.35
2022-12-31T07:08:09.520Z,11.26
2022-12-31T07:10:35.786Z,11.12
2022-12-31T07:13:02.036Z,11.13
2022-12-31T07:15:28.304Z,11.16
2022-12-31T07:17:54.588Z,11.11
2022-12-31T07:20:20.845Z,11.08
2022-12-31T07:22:47.107Z,11.06
2022-12-31T07:25:13.356Z,11.01
2022-12-31T07:27:39.616Z,10.94
2022-12-31T07:30:05.859Z,10.91
2022-12-31T07:32:32.122Z,10.87
2022-12-31T07:34:58.367Z,10.81
2022-12-31T07:37:24.607Z,10.74
2022-12-31T07:39:50.857Z,10.69
2022-12-31T07:42:17.113Z,10.60
2022-12-31T07:44:43.381Z,10.53
2022-12-31T07:47:09.644Z,10.51
2022-12-31T07:49:35.904Z,10.42
2022-12-31T07:52:02.164Z,10.47
2022-12-31T07:54:28.420Z,10.41
2022-12-31T07:56:54.683Z,10.39
2022-12-31T07:59:24.274Z,10.44
2022-12-31T08:01:51.178Z,10.47
2022-12-31T08:04:17.553Z,10.47
2022-12-31T08:06:43.824Z,10.49
2022-12-31T08:09:10.080Z,10.49
2022-12-31T08:11:36.318Z,10.62
2022-12-31T08:14:02.568Z,10.66
2022-12-31T08:16:28.899Z,10.73
2022-12-31T08:18:55.227Z,10.68
2022-12-31T08:21:21.509Z,10.59
2022-12-31T08:23:47.766Z,10.57
2022-12-31T08:26:14.012Z,10.61
2022-12-31T08:28:40.255Z,10.68
2022-12-31T08:31:06.528Z,10.75
2022-12-31T08:33:32.781Z,10.76
2022-12-31T08:35:59.027Z,10.77
2022-12-31T08:38:25.285Z,10.76
2022-12-31T08:40:51.526Z,10.77
2022-12-31T08:43:17.790Z,10.82
2022-12-31T08:45:44.071Z,10.85
2022-12-31T08:48:10.326Z,10.90
2022-12-31T08:50:36.576Z,10.90
2022-12-31T08:53:02.841Z,10.90
2022-12-31T08:55:29.121Z,10.90
2022-12-31T08:57:55.381Z,10.95
2022-12-31T09:00:21.644Z,11.01
2022-12-31T09:02:48.383Z,11.19
2022-12-31T09:05:14.780Z,11.08
2022-12-31T09:07:41.027Z,11.14
2022-12-31T09:10:07.297Z,11.35
2022-12-31T09:12:33.545Z,11.33
2022-12-31T09:14:59.785Z,11.44
2022-12-31T09:17:26.054Z,11.54
2022-12-31T09:19:52.318Z,11.81
2022-12-31T09:22:18.582Z,11.89
2022-12-31T09:24:44.819Z,12.04
2022-12-31T09:27:11.056Z,12.20
2022-12-31T09:29:37.315Z,12.27
2022-12-31T09:32:03.595Z,12.38
2022-12-31T09:34:29.872Z,12.43
2022-12-31T09:36:56.111Z,12.54
2022-12-31T09:39:22.353Z,12.61
2022-12-31T09:41:48.610Z,12.76
2022-12-31T09:44:14.853Z,12.80
2022-12-31T09:46:41.093Z,12.90
2022-12-31T09:49:07.344Z,12.98
2022-12-31T09:51:33.596Z,12.96
2022-12-31T09:53:59.837Z,12.91
2022-12-31T09:56:26.078Z,13.03
2022-12-31T09:58:52.324Z,13.09
2022-12-31T10:01:18.649Z,13.29
2022-12-31T10:03:44.975Z,13.23
2022-12-31T10:06:11.239Z,13.26
2022-12-31T10:08:37.481Z,13.26
2022-12-31T10:11:03.730Z,13.21
2022-12-31T10:13:29.995Z,13.09
2022-12-31T10:15:56.237Z,13.06
2022-12-31T10:18:22.481Z,13.09
2022-12-31T10:20:48.736Z,12.98
2022-12-31T10:23:15.011Z,12.96
2022-12-31T10:25:41.314Z,12.90
2022-12-31T10:28:07.566Z,12.77
2022-12-31T10:30:33.854Z,12.81
2022-12-31T10:33:00.143Z,12.78
2022-12-31T10:35:26.411Z,12.77
2022-12-31T10:37:52.663Z,12.90
2022-12-31T10:40:18.912Z,13.03
2022-12-31T10:42:45.167Z,13.04
2022-12-31T10:45:11.431Z,13.01
2022-12-31T10:47:37.693Z,13.05
2022-12-31T10:50:03.963Z,13.16
2022-12-31T10:52:30.208Z,13.35
2022-12-31T10:54:56.471Z,13.49
2022-12-31T10:57:22.824Z,13.57
2022-12-31T10:59:49.065Z,13.62
2022-12-31T11:02:15.512Z,13.73
2022-12-31T11:04:41.897Z,13.74
2022-12-31T11:07:08.153Z,13.79
2022-12-31T11:09:34.797Z,13.81
2022-12-31T11:12:01.203Z,13.90
2022-12-31T11:14:27.462Z,14.01
2022-12-31T11:16:53.728Z,14.00
2022-12-31T11:19:20.235Z,14.04
2022-12-31T11:21:46.465Z,14.07
2022-12-31T11:24:12.717Z,14.14
2022-12-31T11:26:38.979Z,14.16
2022-12-31T11:29:05.238Z,14.19
2022-12-31T11:31:31.550Z,14.24
2022-12-31T11:33:57.852Z,14.23
2022-12-31T11:36:24.105Z,14.36
2022-12-31T11:38:50.349Z,14.32
2022-12-31T11:41:16.597Z,14.31
2022-12-31T11:43:42.856Z,14.31
2022-12-31T11:46:09.136Z,14.32
2022-12-31T11:48:35.412Z,14.37
2022-12-31T11:51:01.675Z,14.34
2022-12-31T11:53:27.912Z,14.42
2022-12-31T11:55:54.163Z,14.47
2022-12-31T11:58:20.411Z,14.44
2022-12-31T12:00:46.656Z,14.33
2022-12-31T12:03:12.919Z,14.33
2022-12-31T12:05:39.185Z,14.39
2022-12-31T12:08:05.442Z,14.54
2022-12-31T12:10:35.974Z,14.45
2022-12-31T12:13:02.933Z,14.35
2022-12-31T12:15:29.169Z,14.38
2022-12-31T12:17:55.410Z,14.43
2022-12-31T12:20:21.686Z,14.44
2022-12-31T12:22:49.572Z,14.42
2022-12-31T12:25:15.918Z,14.43
2022-12-31T12:27:42.182Z,14.47
2022-12-31T12:30:08.445Z,14.50
2022-12-31T12:32:34.720Z,14.59
2022-12-31T12:35:00.981Z,14.69
2022-12-31T12:37:27.232Z,14.73
2022-12-31T12:39:53.500Z,14.87
2022-12-31T12:42:19.747Z,14.90
2022-12-31T12:44:46.007Z,14.83
2022-12-31T12:47:12.301Z,14.81
2022-12-31T12:49:38.609Z,14.84
2022-12-31T12:52:04.851Z,14.90
2022-12-31T12:54:31.118Z,14.99
2022-12-31T12:56:57.392Z,14.89
2022-12-31T12:59:23.649Z,14.94
2022-12-31T13:01:49.973Z,14.96
2022-12-31T13:07:02.601Z,14.94
2022-12-31T13:09:28.860Z,14.94
2022-12-31T13:11:55.120Z,14.98
2022-12-31T13:14:21.357Z,14.99
2022-12-31T13:16:47.664Z,14.98
2022-12-31T13:19:13.951Z,14.98
2022-12-31T13:21:40.358Z,14.99
2022-12-31T13:24:06.626Z,15.08
2022-12-31T13:26:32.892Z,15.05
2022-12-31T13:28:59.152Z,15.05
2022-12-31T13:31:25.451Z,15.05
2022-12-31T13:33:51.744Z,15.10
2022-12-31T13:36:17.991Z,15.14
2022-12-31T13:38:44.240Z,15.16
2022-12-31T13:41:10.501Z,15.12
2022-12-31T13:43:36.757Z,15.17
2022-12-31T13:46:03.088Z,15.12
2022-12-31T13:48:29.443Z,15.16
2022-12-31T13:50:55.741Z,15.19
2022-12-31T13:53:22.000Z,15.19
2022-12-31T13:55:52.080Z,15.12
2022-12-31T13:58:22.831Z,15.19
2022-12-31T14:00:49.117Z,15.17
2022-12-31T14:03:15.450Z,15.10
2022-12-31T14:05:41.694Z,15.09
2022-12-31T14:08:08.037Z,15.11
2022-12-31T14:10:34.287Z,15.16
2022-12-31T14:13:00.541Z,15.14
2022-12-31T14:15:26.803Z,15.17
2022-12-31T14:17:53.048Z,15.13
2022-12-31T14:20:19.274Z,15.14
2022-12-31T14:22:45.505Z,15.06
2022-12-31T14:25:11.789Z,14.96
2022-12-31T14:27:38.037Z,14.92
2022-12-31T14:30:04.447Z,14.91
2022-12-31T14:32:30.780Z,14.86
2022-12-31T14:34:57.037Z,14.90
2022-12-31T14:37:23.302Z,14.85
2022-12-31T14:39:49.571Z,14.89
2022-12-31T14:42:15.834Z,14.90
2022-12-31T14:44:42.089Z,14.88
2022-12-31T14:47:08.369Z,14.95
2022-12-31T14:49:34.636Z,14.94
2022-12-31T14:52:00.896Z,14.91
2022-12-31T14:54:28.931Z,14.92
2022-12-31T14:56:55.476Z,14.91
2022-12-31T14:59:21.733Z,14.94
2022-12-31T15:01:48.071Z,14.95
2022-12-31T15:04:14.394Z,14.96
2022-12-31T15:06:40.638Z,14.96
2022-12-31T15:09:08.637Z,14.99
2022-12-31T15:11:35.103Z,14.93
2022-12-31T15:14:01.359Z,14.98
2022-12-31T15:16:27.623Z,14.97
2022-12-31T15:18:53.935Z,14.99
2022-12-31T15:21:20.202Z,15.01
2022-12-31T15:23:46.461Z,15.03
2022-12-31T15:26:12.729Z,15.00
2022-12-31T15:28:39.014Z,15.07
2022-12-31T15:31:05.405Z,15.15
2022-12-31T15:33:31.694Z,15.10
2022-12-31T15:35:57.956Z,15.11
2022-12-31T15:38:24.209Z,15.11
2022-12-31T15:40:50.468Z,15.10
2022-12-31T15:43:16.714Z,15.10
2022-12-31T15:45:42.972Z,15.13
2022-12-31T15:48:09.233Z,15.14
2022-12-31T15:50:35.483Z,15.12
2022-12-31T15:53:01.739Z,15.11
2022-12-31T15:55:28.006Z,15.11
2022-12-31T15:57:54.280Z,15.07
2022-12-31T16:00:20.543Z,15.06
2022-12-31T16:02:46.867Z,15.05
2022-12-31T16:05:13.174Z,15.07
2022-12-31T16:07:39.430Z,15.01
2022-12-31T16:10:05.698Z,14.97
2022-12-31T16:12:34.361Z,14.99
2022-12-31T16:15:03.310Z,15.01
2022-12-31T16:17:29.569Z,14.96
2022-12-31T16:19:55.843Z,14.98
2022-12-31T16:22:22.103Z,14.99
2022-12-31T16:25:28.511Z,14.98
2022-12-31T16:27:34.582Z,15.01
2022-12-31T16:30:00.917Z,14.97
2022-12-31T16:32:27.243Z,14.93
2022-12-31T16:34:53.496Z,14.93
2022-12-31T16:37:19.745Z,14.91
2022-12-31T16:39:46.004Z,14.98
2022-12-31T16:42:12.262Z,15.01
2022-12-31T16:44:38.528Z,14.92
2022-12-31T16:47:04.777Z,14.95
2022-12-31T16:49:31.034Z,14.96
2022-12-31T16:51:57.290Z,14.93
2022-12-31T16:54:23.546Z,14.92
2022-12-31T16:56:49.792Z,14.96
2022-12-31T16:59:16.053Z,14.89
2022-12-31T17:01:42.384Z,14.82
2022-12-31T17:04:08.677Z,14.90
2022-12-31T17:06:34.916Z,14.89
2022-12-31T17:09:01.189Z,14.85
2022-12-31T17:11:27.478Z,14.84
2022-12-31T17:13:53.727Z,14.84
2022-12-31T17:16:20.055Z,14.83
2022-12-31T17:18:46.339Z,14.86
2022-12-31T17:21:12.588Z,14.82
2022-12-31T17:23:38.830Z,14.87
2022-12-31T17:26:05.071Z,14.83
2022-12-31T17:28:31.325Z,14.85
2022-12-31T17:30:57.647Z,14.83
2022-12-31T17:33:23.972Z,14.81
2022-12-31T17:35:50.231Z,14.81
2022-12-31T17:38:16.504Z,14.81
2022-12-31T17:40:51.623Z,14.82
2022-12-31T17:43:18.484Z,14.84
2022-12-31T17:45:44.730Z,14.81
2022-12-31T17:48:11.093Z,14.88
2022-12-31T17:50:37.351Z,14.84
2022-12-31T17:53:03.605Z,14.82
2022-12-31T17:55:29.967Z,14.81
2022-12-31T17:57:56.241Z,14.79
2022-12-31T18:00:22.475Z,14.77
2022-12-31T18:02:48.761Z,14.72
2022-12-31T18:05:15.047Z,14.68
2022-12-31T18:07:41.304Z,14.71
2022-12-31T18:10:07.571Z,14.69
2022-12-31T18:12:33.837Z,14.65
2022-12-31T18:15:00.119Z,14.60
2022-12-31T18:17:26.371Z,14.55
2022-12-31T18:20:04.613Z,14.59
2022-12-31T18:22:32.156Z,14.55
2022-12-31T18:24:58.417Z,14.49
2022-12-31T18:27:24.676Z,14.52
2022-12-31T18:29:51.077Z,14.49
2022-12-31T18:32:17.564Z,14.43
2022-12-31T18:34:43.847Z,14.46
2022-12-31T18:37:10.116Z,14.45
2022-12-31T18:39:36.358Z,14.47
2022-12-31T18:42:02.606Z,14.44
2022-12-31T18:44:28.985Z,14.44
2022-12-31T18:46:55.247Z,14.43
2022-12-31T18:49:21.506Z,14.42
2022-12-31T18:51:47.775Z,14.43
2022-12-31T18:54:14.055Z,14.47
2022-12-31T18:56:46.354Z,14.42
2022-12-31T18:59:13.396Z,14.46
2022-12-31T19:01:39.738Z,14.37
2022-12-31T19:04:06.083Z,14.39
2022-12-31T19:06:32.338Z,14.33
2022-12-31T19:09:00.816Z,14.36
2022-12-31T19:11:27.506Z,14.38
2022-12-31T19:13:53.803Z,14.33
2022-12-31T19:16:20.137Z,14.38
2022-12-31T19:18:46.414Z,14.33
2022-12-31T19:21:12.656Z,14.27
2022-12-31T19:23:38.896Z,14.32
2022-12-31T19:26:05.145Z,14.37
2022-12-31T19:28:31.488Z,14.28
2022-12-31T19:30:57.732Z,14.27
2022-12-31T19:33:23.976Z,14.21
2022-12-31T19:35:50.231Z,14.28
2022-12-31T19:38:16.484Z,14.24
2022-12-31T19:40:42.730Z,14.22
2022-12-31T19:43:08.983Z,14.26
2022-12-31T19:45:35.264Z,14.25
2022-12-31T19:48:01.539Z,14.18
2022-12-31T19:50:27.795Z,14.27
2022-12-31T19:52:54.062Z,14.27
2022-12-31T19:55:20.311Z,14.15
2022-12-31T19:57:46.561Z,14.11
2022-12-31T20:00:12.835Z,14.15
2022-12-31T20:02:39.230Z,14.13
2022-12-31T20:05:05.606Z,14.12
2022-12-31T20:07:31.870Z,14.14
2022-12-31T20:09:58.130Z,14.11
2022-12-31T20:12:24.375Z,14.17
2022-12-31T20:14:50.642Z,14.09
2022-12-31T20:17:16.890Z,14.10
2022-12-31T20:19:43.145Z,14.03
2022-12-31T20:22:09.404Z,14.07
2022-12-31T20:24:35.662Z,14.00
2022-12-31T20:27:01.943Z,13.97
2022-12-31T20:29:28.219Z,14.04
2022-12-31T20:31:54.460Z,13.94
2022-12-31T20:34:20.713Z,13.92
2022-12-31T20:36:47.003Z,13.98
2022-12-31T20:39:13.263Z,13.92
2022-12-31T20:41:39.521Z,13.82
2022-12-31T20:44:05.771Z,13.91
2022-12-31T20:46:32.055Z,13.89
2022-12-31T20:48:58.425Z,13.88
2022-12-31T20:51:24.678Z,13.85
2022-12-31T20:53:51.019Z,13.81
2022-12-31T20:56:17.303Z,13.84
2022-12-31T20:58:43.546Z,13.81
2022-12-31T21:01:09.857Z,13.78
2022-12-31T21:06:22.375Z,13.79
2022-12-31T21:08:48.622Z,13.74
2022-12-31T21:11:14.865Z,13.80
2022-12-31T21:13:41.145Z,13.79
2022-12-31T21:16:07.450Z,13.78
2022-12-31T21:18:33.712Z,13.75
2022-12-31T21:20:59.976Z,13.77
2022-12-31T21:23:26.237Z,13.80
2022-12-31T21:25:52.485Z,13.77
2022-12-31T21:28:18.746Z,13.68
2022-12-31T21:30:45.031Z,13.69
2022-12-31T21:33:11.288Z,13.67
2022-12-31T21:35:43.788Z,13.70
2022-12-31T21:38:11.742Z,13.67
2022-12-31T21:40:37.989Z,13.63
2022-12-31T21:43:04.261Z,13.66
2022-12-31T21:45:30.515Z,13.64
2022-12-31T21:47:56.828Z,13.63
2022-12-31T21:50:23.180Z,13.63
2022-12-31T21:52:49.433Z,13.65
2022-12-31T21:55:15.699Z,13.63
2022-12-31T21:58:15.663Z,13.63
2022-12-31T22:00:43.917Z,13.63
2022-12-31T22:03:10.447Z,13.66
2022-12-31T22:05:36.737Z,13.65
2022-12-31T22:08:02.986Z,13.69
2022-12-31T22:10:29.286Z,13.64
2022-12-31T22:12:55.540Z,13.70
2022-12-31T22:15:21.830Z,13.59
2022-12-31T22:17:48.080Z,13.62
2022-12-31T22:20:26.966Z,13.56
2022-12-31T22:22:54.308Z,13.63
2022-12-31T22:25:20.573Z,13.57
2022-12-31T22:28:11.647Z,13.66
2022-12-31T22:30:33.056Z,13.56
2022-12-31T22:32:59.329Z,13.63
2022-12-31T22:35:25.586Z,13.67
2022-12-31T22:37:57.536Z,13.65
2022-12-31T22:40:25.353Z,13.73
2022-12-31T22:42:51.631Z,13.70
2022-12-31T22:45:17.896Z,13.60
2022-12-31T22:47:44.144Z,13.60
2022-12-31T22:50:10.399Z,13.58
2022-12-31T22:52:36.661Z,13.61
2022-12-31T22:55:02.921Z,13.58
2022-12-31T22:57:29.164Z,13.68
2022-12-31T22:59:55.644Z,13.65
2022-12-31T23:02:21.908Z,13.66
2022-12-31T23:04:48.161Z,13.62
2022-12-31T23:07:14.422Z,13.65
2022-12-31T23:09:40.683Z,13.61
2022-12-31T23:12:06.967Z,13.56
2022-12-31T23:14:33.227Z,13.58
2022-12-31T23:16:59.473Z,13.58
2022-12-31T23:19:45.714Z,13.59
2022-12-31T23:22:11.963Z,13.61
2022-12-31T23:24:38.240Z,13.59
2022-12-31T23:27:04.504Z,13.62
2022-12-31T23:29:30.784Z,13.67
2022-12-31T23:31:57.048Z,13.57
2022-12-31T23:34:23.310Z,13.54
2022-12-31T23:36:49.597Z,13.53
2022-12-31T23:39:15.866Z,13.54
2022-12-31T23:41:42.123Z,13.42
2022-12-31T23:44:08.381Z,13.51
2022-12-31T23:46:34.634Z,13.47
2022-12-31T23:49:00.899Z,13.51
2022-12-31T23:51:27.166Z,13.49
2022-12-31T23:53:53.411Z,13.48
2022-12-31T23:56:23.611Z,13.42
2022-12-31T23:58:50.348Z,13.47
